Time,TemperatureF,DewpointF,PressureIn,WindDirection,WindDirectionDegrees,WindSpeedMPH,WindSpeedGustMPH,Humidity,HourlyPrecipIn,Conditions,Clouds,dailyrainin,SoftwareType,DateUTC
2013-03-10 00:02:00,37.2,26.1,30.30,SW,225,0.0,0.0,64,0.00,,,0.00,WUHU215HW,2013-03-10 08:02:00,
2013-03-10 00:07:00,37.0,26.3,30.29,SW,225,0.0,0.0,65,0.00,,,0.00,WUHU215HW,2013-03-10 08:07:00,
2013-03-10 00:12:00,36.8,26.1,30.29,SW,225,0.0,0.0,65,0.00,,,0.00,WUHU215HW,2013-03-10 08:12:00,
2013-03-10 00:17:00,36.6,26.0,30.29,SW,225,0.0,0.0,65,0.00,,,0.00,WUHU215HW,2013-03-10 08:17:00,
2013-03-10 00:22:00,36.5,25.8,30.30,SW,225,0.0,0.0,65,0.00,,,0.00,WUHU215HW,2013-03-10 08:22:00,
2013-03-10 00:27:00,36.3,25.6,30.30,SW,225,0.0,0.0,65,0.00,,,0.00,WUHU215HW,2013-03-10 08:27:00,
2013-03-10 00:32:00,36.1,25.4,30.30,SW,225,0.0,0.0,65,0.00,,,0.00,WUHU215HW,2013-03-10 08:32:00,
2013-03-10 00:37:00,36.1,25.8,30.30,SW,225,0.0,0.0,66,0.00,,,0.00,WUHU215HW,2013-03-10 08:37:00,
2013-03-10 00:42:00,35.9,26.0,30.30,SW,225,0.0,0.0,67,0.00,,,0.00,WUHU215HW,2013-03-10 08:42:00,
2013-03-10 00:47:00,35.9,26.0,30.30,SW,225,0.0,0.0,67,0.00,,,0.00,WUHU215HW,2013-03-10 08:47:00,
2013-03-10 00:52:00,35.7,25.8,30.31,SW,225,0.0,0.0,67,0.00,,,0.00,WUHU215HW,2013-03-10 08:52:00,
2013-03-10 00:57:00,35.7,25.8,30.31,SW,225,0.0,0.0,67,0.00,,,0.00,WUHU215HW,2013-03-10 08:57:00,
2013-03-10 01:02:00,35.7,25.8,30.31,SW,225,0.0,0.0,67,0.00,,,0.00,WUHU215HW,2013-03-10 09:02:00,
2013-03-10 01:07:00,35.7,25.8,30.31,SW,225,0.0,0.0,67,0.00,,,0.00,WUHU215HW,2013-03-10 09:07:00,
2013-03-10 01:12:00,35.7,26.2,30.31,SW,225,0.0,0.0,68,0.00,,,0.00,WUHU215HW,2013-03-10 09:12:00,
2013-03-10 01:17:00,36.1,26.5,30.31,SW,225,0.0,0.0,68,0.00,,,0.00,WUHU215HW,2013-03-10 09:17:00,
2013-03-10 01:22:00,36.1,26.9,30.31,SW,225,0.0,0.0,69,0.00,,,0.00,WUHU215HW,2013-03-10 09:22:00,
2013-03-10 01:27:00,36.3,27.1,30.31,SW,225,0.0,0.0,69,0.00,,,0.00,WUHU215HW,2013-03-10 09:27:00,
2013-03-10 01:32:00,36.5,27.3,30.31,SW,225,0.0,0.0,69,0.00,,,0.00,WUHU215HW,2013-03-10 09:32:00,
2013-03-10 01:37:00,36.6,27.4,30.31,SW,225,0.0,0.0,69,0.00,,,0.00,WUHU215HW,2013-03-10 09:37:00,
2013-03-10 01:42:00,36.6,27.4,30.31,SW,225,0.0,0.0,69,0.00,,,0.00,WUHU215HW,2013-03-10 09:42:00,
2013-03-10 01:47:00,37.0,28.0,30.31,SSW,203,0.0,0.0,70,0.00,,,0.00,WUHU215HW,2013-03-10 09:47:00,
2013-03-10 01:52:00,37.2,28.4,30.30,SSW,203,0.0,0.0,70,0.00,,,0.00,WUHU215HW,2013-03-10 09:52:00,
2013-03-10 01:57:00,37.2,28.4,30.30,SSW,203,0.0,0.0,70,0.00,,,0.00,WUHU215HW,2013-03-10 09:57:00,
2013-03-10 03:02:00,37.4,28.2,30.30,SSW,203,0.0,0.0,69,0.00,,,0.00,WUHU215HW,2013-03-10 10:02:00,
2013-03-10 03:07:00,37.2,28.0,30.31,SSW,203,0.0,0.0,69,0.00,,,0.00,WUHU215HW,2013-03-10 10:07:00,
2013-03-10 03:12:00,37.2,28.0,30.30,SSW,203,0.0,0.0,69,0.00,,,0.00,WUHU215HW,2013-03-10 10:12:00,
2013-03-10 03:17:00,37.2,28.4,30.31,SW,225,0.0,0.0,70,0.00,,,0.00,WUHU215HW,2013-03-10 10:17:00,
2013-03-10 03:22:00,37.2,28.4,30.30,SW,225,0.0,0.0,70,0.00,,,0.00,WUHU215HW,2013-03-10 10:22:00,
2013-03-10 03:27:00,37.2,28.4,30.30,SW,225,0.0,0.0,70,0.00,,,0.00,WUHU215HW,2013-03-10 10:27:00,
2013-03-10 03:32:00,37.2,28.4,30.30,SSW,203,0.0,0.0,70,0.00,,,0.00,WUHU215HW,2013-03-10 10:32:00,
2013-03-10 03:37:00,37.2,28.4,30.30,SSW,203,0.0,0.0,70,0.00,,,0.00,WUHU215HW,2013-03-10 10:37:00,
2013-03-10 03:42:00,37.2,28.4,30.29,SSW,203,0.0,0.0,70,0.00,,,0.00,WUHU215HW,2013-03-10 10:42:00,
2013-03-10 03:47:00,37.0,27.8,30.29,SSW,203,0.0,0.0,69,0.00,,,0.00,WUHU215HW,2013-03-10 10:47:00,
2013-03-10 03:52:00,37.0,28.2,30.30,SSW,203,0.0,0.0,70,0.00,,,0.00,WUHU215HW,2013-03-10 10:52:00,
2013-03-10 03:57:00,36.8,28.0,30.29,SSW,203,0.0,0.0,70,0.00,,,0.00,WUHU215HW,2013-03-10 10:57:00,
2013-03-10 04:02:00,36.5,27.6,30.29,SSW,203,0.0,0.0,70,0.00,,,0.00,WUHU215HW,2013-03-10 11:02:00,
2013-03-10 04:07:00,36.3,27.5,30.29,SSW,203,0.0,0.0,70,0.00,,,0.00,WUHU215HW,2013-03-10 11:07:00,
2013-03-10 04:13:00,36.3,27.8,30.29,SSW,203,0.0,0.0,71,0.00,,,0.00,WUHU215HW,2013-03-10 11:13:00,
2013-03-10 04:18:00,36.6,28.1,30.30,SSW,203,0.0,0.0,71,0.00,,,0.00,WUHU215HW,2013-03-10 11:18:00,
2013-03-10 04:24:00,37.2,28.7,30.30,SSW,203,0.0,0.0,71,0.00,,,0.00,WUHU215HW,2013-03-10 11:24:00,
2013-03-10 04:29:00,37.4,28.9,30.30,SSW,203,0.0,0.0,71,0.00,,,0.00,WUHU215HW,2013-03-10 11:29:00,
2013-03-10 04:34:00,37.4,28.9,30.30,South,180,0.0,0.0,71,0.00,,,0.00,WUHU215HW,2013-03-10 11:34:00,
2013-03-10 04:39:00,37.4,28.9,30.30,South,180,0.0,0.0,71,0.00,,,0.00,WUHU215HW,2013-03-10 11:39:00,
2013-03-10 04:44:00,37.2,28.4,30.29,South,180,0.0,0.0,70,0.00,,,0.00,WUHU215HW,2013-03-10 11:44:00,
2013-03-10 04:49:00,37.0,28.2,30.30,South,180,0.0,0.0,70,0.00,,,0.00,WUHU215HW,2013-03-10 11:49:00,
2013-03-10 04:54:00,37.0,28.2,30.30,South,180,0.0,0.0,70,0.00,,,0.00,WUHU215HW,2013-03-10 11:54:00,
2013-03-10 04:59:00,37.0,28.5,30.30,SW,225,0.0,0.0,71,0.00,,,0.00,WUHU215HW,2013-03-10 11:59:00,
2013-03-10 05:04:00,37.2,28.4,30.30,SW,225,0.0,0.0,70,0.00,,,0.00,WUHU215HW,2013-03-10 12:04:00,
2013-03-10 05:09:00,37.0,28.2,30.30,SW,225,0.0,0.0,70,0.00,,,0.00,WUHU215HW,2013-03-10 12:09:00,
2013-03-10 05:14:00,37.0,28.2,30.29,SW,225,0.0,0.0,70,0.00,,,0.00,WUHU215HW,2013-03-10 12:14:00,
2013-03-10 05:20:00,36.6,27.8,30.30,WSW,248,0.0,0.0,70,0.00,,,0.00,WUHU215HW,2013-03-10 12:20:00,
2013-03-10 05:26:00,36.6,27.8,30.30,WSW,248,0.0,0.0,70,0.00,,,0.00,WUHU215HW,2013-03-10 12:26:00,
2013-03-10 05:31:00,36.5,27.6,30.31,WSW,248,0.0,0.0,70,0.00,,,0.00,WUHU215HW,2013-03-10 12:31:00,
2013-03-10 05:36:00,36.3,27.5,30.31,WSW,248,0.0,0.0,70,0.00,,,0.00,WUHU215HW,2013-03-10 12:36:00,
2013-03-10 05:41:00,35.9,27.4,30.31,WSW,248,0.0,0.0,71,0.00,,,0.00,WUHU215HW,2013-03-10 12:41:00,
2013-03-10 05:46:00,35.7,27.2,30.31,WSW,248,0.0,0.0,71,0.00,,,0.00,WUHU215HW,2013-03-10 12:46:00,
2013-03-10 05:51:00,35.7,27.2,30.31,WSW,248,0.0,0.0,71,0.00,,,0.00,WUHU215HW,2013-03-10 12:51:00,
2013-03-10 05:56:00,35.4,26.9,30.31,WSW,248,0.0,0.0,71,0.00,,,0.00,WUHU215HW,2013-03-10 12:56:00,
2013-03-10 06:01:00,35.2,26.7,30.31,WSW,248,0.0,0.0,71,0.00,,,0.00,WUHU215HW,2013-03-10 13:01:00,
2013-03-10 06:06:00,34.8,26.3,30.31,WSW,248,0.0,0.0,71,0.00,,,0.00,WUHU215HW,2013-03-10 13:06:00,
2013-03-10 06:11:00,34.8,26.7,30.30,WSW,248,0.0,0.0,72,0.00,,,0.00,WUHU215HW,2013-03-10 13:11:00,
2013-03-10 06:16:00,34.8,26.7,30.30,WSW,248,0.0,0.0,72,0.00,,,0.00,WUHU215HW,2013-03-10 13:16:00,
2013-03-10 06:21:00,34.8,26.7,30.30,WSW,248,0.0,0.0,72,0.00,,,0.00,WUHU215HW,2013-03-10 13:21:00,
2013-03-10 06:26:00,34.8,26.7,30.30,WSW,248,0.0,0.0,72,0.00,,,0.00,WUHU215HW,2013-03-10 13:26:00,
2013-03-10 06:31:00,34.8,27.0,30.30,WSW,248,0.0,0.0,73,0.00,,,0.00,WUHU215HW,2013-03-10 13:31:00,
2013-03-10 06:36:00,34.8,27.0,30.30,WSW,248,0.0,0.0,73,0.00,,,0.00,WUHU215HW,2013-03-10 13:36:00,
2013-03-10 06:41:00,34.8,27.0,30.30,WSW,248,0.0,0.0,73,0.00,,,0.00,WUHU215HW,2013-03-10 13:41:00,
2013-03-10 06:46:00,35.0,27.2,30.31,WSW,248,0.0,0.0,73,0.00,,,0.00,WUHU215HW,2013-03-10 13:46:00,
2013-03-10 06:51:00,35.2,27.3,30.31,SSW,203,0.0,0.0,73,0.00,,,0.00,WUHU215HW,2013-03-10 13:51:00,
2013-03-10 06:56:00,35.4,27.8,30.31,SSW,203,0.0,0.0,74,0.00,,,0.00,WUHU215HW,2013-03-10 13:56:00,
2013-03-10 07:01:00,35.9,28.1,30.31,South,180,0.0,0.0,73,0.00,,,0.00,WUHU215HW,2013-03-10 14:01:00,
2013-03-10 07:06:00,36.5,28.4,30.31,SSW,203,0.0,0.0,73,0.00,,,0.00,WUHU215HW,2013-03-10 14:06:00,
2013-03-10 07:11:00,36.8,28.6,30.31,SW,225,0.0,0.0,72,0.00,,,0.00,WUHU215HW,2013-03-10 14:11:00,
2013-03-10 07:16:00,37.2,29.0,30.32,South,180,1.5,1.5,72,0.00,,,0.00,WUHU215HW,2013-03-10 14:16:00,
2013-03-10 07:21:00,37.2,28.7,30.31,SSW,203,0.0,1.5,72,0.00,,,0.00,WUHU215HW,2013-03-10 14:21:00,
2013-03-10 07:26:00,37.2,28.7,30.31,South,180,0.0,1.5,71,0.00,,,0.00,WUHU215HW,2013-03-10 14:26:00,
2013-03-10 07:31:00,37.0,28.5,30.31,South,180,0.0,0.0,71,0.00,,,0.00,WUHU215HW,2013-03-10 14:31:00,
2013-03-10 07:36:00,37.0,28.5,30.31,South,180,0.0,0.0,71,0.00,,,0.00,WUHU215HW,2013-03-10 14:36:00,
2013-03-10 07:41:00,37.0,28.5,30.31,South,180,0.0,0.0,71,0.00,,,0.00,WUHU215HW,2013-03-10 14:41:00,
2013-03-10 07:46:00,37.0,28.5,30.30,South,180,0.0,0.0,71,0.00,,,0.00,WUHU215HW,2013-03-10 14:46:00,
2013-03-10 07:51:00,37.2,28.7,30.30,South,180,0.0,0.0,71,0.00,,,0.00,WUHU215HW,2013-03-10 14:51:00,
2013-03-10 07:56:00,37.4,28.9,30.29,South,180,0.0,0.0,71,0.00,,,0.00,WUHU215HW,2013-03-10 14:56:00,
2013-03-10 08:01:00,37.5,28.7,30.29,South,180,0.0,0.0,70,0.00,,,0.00,WUHU215HW,2013-03-10 15:01:00,
2013-03-10 08:06:00,37.5,28.9,30.29,SW,225,0.0,0.0,70,0.00,,,0.00,WUHU215HW,2013-03-10 15:06:00,
2013-03-10 08:11:00,37.7,28.9,30.29,SW,225,0.0,0.0,70,0.00,,,0.00,WUHU215HW,2013-03-10 15:11:00,
2013-03-10 08:16:00,37.9,29.0,30.29,SW,225,0.0,0.0,70,0.00,,,0.00,WUHU215HW,2013-03-10 15:16:00,
2013-03-10 08:21:00,38.3,29.3,30.29,SW,225,0.0,0.0,70,0.00,,,0.00,WUHU215HW,2013-03-10 15:21:00,
2013-03-10 08:26:00,38.4,29.5,30.29,SW,225,0.0,0.0,70,0.00,,,0.00,WUHU215HW,2013-03-10 15:26:00,
2013-03-10 08:31:00,39.0,30.0,30.29,SW,225,0.0,0.0,70,0.00,,,0.00,WUHU215HW,2013-03-10 15:31:00,
2013-03-10 08:36:00,39.7,30.7,30.29,SW,225,0.0,0.0,70,0.00,,,0.00,WUHU215HW,2013-03-10 15:36:00,
2013-03-10 08:41:00,40.1,31.1,30.29,WSW,248,0.0,0.0,70,0.00,,,0.00,WUHU215HW,2013-03-10 15:41:00,
2013-03-10 08:46:00,40.4,31.0,30.30,WSW,248,0.0,0.0,69,0.00,,,0.00,WUHU215HW,2013-03-10 15:46:00,
2013-03-10 08:52:00,40.6,31.2,30.30,WSW,248,0.0,0.0,69,0.00,,,0.00,WUHU215HW,2013-03-10 15:52:00,
2013-03-10 08:57:00,40.6,31.2,30.30,WSW,248,0.0,0.0,69,0.00,,,0.00,WUHU215HW,2013-03-10 15:57:00,
2013-03-10 09:02:00,40.6,31.2,30.29,WSW,248,0.0,0.0,69,0.00,,,0.00,WUHU215HW,2013-03-10 16:02:00,
2013-03-10 09:08:00,41.0,31.6,30.29,SSW,203,0.0,0.0,69,0.00,,,0.00,WUHU215HW,2013-03-10 16:08:00,
2013-03-10 09:13:00,41.1,31.4,30.29,SSW,203,0.0,0.0,68,0.00,,,0.00,WUHU215HW,2013-03-10 16:13:00,
2013-03-10 09:18:00,41.5,31.7,30.29,ESE,113,3.3,3.3,68,0.00,,,0.00,WUHU215HW,2013-03-10 16:18:00,
2013-03-10 09:23:00,41.5,31.7,30.30,SE,135,0.0,3.3,68,0.00,,,0.00,WUHU215HW,2013-03-10 16:23:00,
2013-03-10 09:28:00,42.0,32.2,30.29,ESE,113,0.0,3.3,68,0.00,,,0.00,WUHU215HW,2013-03-10 16:28:00,
2013-03-10 09:33:00,42.4,32.2,30.29,ESE,113,0.0,0.0,67,0.00,,,0.00,WUHU215HW,2013-03-10 16:33:00,
2013-03-10 09:38:00,42.9,32.6,30.28,ESE,113,0.0,0.0,67,0.00,,,0.00,WUHU215HW,2013-03-10 16:38:00,
2013-03-10 09:43:00,43.5,33.2,30.28,ESE,113,0.0,0.0,67,0.00,,,0.00,WUHU215HW,2013-03-10 16:43:00,
2013-03-10 09:48:00,43.7,33.4,30.28,ESE,113,0.0,0.0,67,0.00,,,0.00,WUHU215HW,2013-03-10 16:48:00,
2013-03-10 09:53:00,44.4,33.7,30.28,SSW,203,0.0,0.0,66,0.00,,,0.00,WUHU215HW,2013-03-10 16:53:00,
2013-03-10 09:58:00,44.7,34.0,30.28,SW,225,1.7,1.7,66,0.00,,,0.00,WUHU215HW,2013-03-10 16:58:00,
2013-03-10 10:03:00,45.3,34.5,30.28,SE,135,0.0,1.7,66,0.00,,,0.00,WUHU215HW,2013-03-10 17:03:00,
2013-03-10 10:08:00,46.4,34.8,30.28,SSW,203,0.0,1.7,65,0.00,,,0.00,WUHU215HW,2013-03-10 17:08:00,
2013-03-10 10:13:00,47.1,35.5,30.28,South,180,3.8,3.8,64,0.00,,,0.00,WUHU215HW,2013-03-10 17:13:00,
2013-03-10 10:18:00,48.0,36.0,30.28,SSW,203,0.0,4.2,63,0.00,,,0.00,WUHU215HW,2013-03-10 17:18:00,
2013-03-10 10:23:00,48.5,36.3,30.28,SSE,158,8.2,8.2,62,0.00,,,0.00,WUHU215HW,2013-03-10 17:23:00,
2013-03-10 10:28:00,49.2,36.4,30.28,ESE,113,3.8,8.2,61,0.00,,,0.00,WUHU215HW,2013-03-10 17:28:00,
2013-03-10 10:33:00,49.8,36.5,30.27,SW,225,0.0,8.2,60,0.00,,,0.00,WUHU215HW,2013-03-10 17:33:00,
2013-03-10 10:38:00,50.7,37.1,30.27,SSW,203,0.0,3.8,59,0.00,,,0.00,WUHU215HW,2013-03-10 17:38:00,
2013-03-10 10:43:00,50.9,36.5,30.27,South,180,0.0,0.0,58,0.00,,,0.00,WUHU215HW,2013-03-10 17:43:00,
2013-03-10 10:48:00,51.0,36.7,30.27,SW,225,0.0,0.0,58,0.00,,,0.00,WUHU215HW,2013-03-10 17:48:00,
2013-03-10 10:53:00,51.6,36.7,30.27,SW,225,0.0,0.0,57,0.00,,,0.00,WUHU215HW,2013-03-10 17:53:00,
2013-03-10 10:58:00,51.6,36.3,30.26,South,180,0.0,6.4,56,0.00,,,0.00,WUHU215HW,2013-03-10 17:58:00,
2013-03-10 11:03:00,51.9,36.6,30.26,SW,225,0.0,6.4,56,0.00,,,0.00,WUHU215HW,2013-03-10 18:03:00,
2013-03-10 11:08:00,52.5,36.8,30.26,SE,135,0.0,0.0,55,0.00,,,0.00,WUHU215HW,2013-03-10 18:08:00,
2013-03-10 11:13:00,53.2,37.4,30.27,SSE,158,0.0,0.0,55,0.00,,,0.00,WUHU215HW,2013-03-10 18:13:00,
2013-03-10 11:18:00,53.7,37.4,30.26,South,180,0.0,0.0,54,0.00,,,0.00,WUHU215HW,2013-03-10 18:18:00,
2013-03-10 11:23:00,54.1,36.8,30.26,SSE,158,0.0,3.8,52,0.00,,,0.00,WUHU215HW,2013-03-10 18:23:00,
2013-03-10 11:28:00,54.3,36.5,30.26,South,180,0.0,3.8,51,0.00,,,0.00,WUHU215HW,2013-03-10 18:28:00,
2013-03-10 11:33:00,54.3,36.0,30.25,South,180,0.4,0.4,50,0.00,,,0.00,WUHU215HW,2013-03-10 18:33:00,
2013-03-10 11:38:00,55.0,36.1,30.25,SE,135,1.1,1.1,49,0.00,,,0.00,WUHU215HW,2013-03-10 18:38:00,
2013-03-10 11:43:00,55.2,35.7,30.24,South,180,4.0,4.0,48,0.00,,,0.00,WUHU215HW,2013-03-10 18:43:00,
2013-03-10 11:48:00,55.5,36.0,30.24,SE,135,3.5,5.5,48,0.00,,,0.00,WUHU215HW,2013-03-10 18:48:00,
2013-03-10 11:53:00,55.7,36.2,30.24,SSE,158,0.0,5.5,48,0.00,,,0.00,WUHU215HW,2013-03-10 18:53:00,
2013-03-10 11:58:00,55.9,36.4,30.23,SE,135,0.0,3.5,48,0.00,,,0.00,WUHU215HW,2013-03-10 18:58:00,
2013-03-10 12:03:00,56.1,36.0,30.24,SSE,158,2.2,2.4,47,0.00,,,0.00,WUHU215HW,2013-03-10 19:03:00,
2013-03-10 12:08:00,56.8,36.7,30.24,SE,135,3.8,6.0,47,0.00,,,0.00,WUHU215HW,2013-03-10 19:08:00,
2013-03-10 12:13:00,57.0,36.9,30.23,SSE,158,0.0,6.0,47,0.00,,,0.00,WUHU215HW,2013-03-10 19:13:00,
2013-03-10 12:18:00,57.0,36.3,30.23,SE,135,0.0,3.8,46,0.00,,,0.00,WUHU215HW,2013-03-10 19:18:00,
2013-03-10 12:23:00,57.0,36.3,30.23,SSE,158,0.0,7.6,46,0.00,,,0.00,WUHU215HW,2013-03-10 19:23:00,
2013-03-10 12:28:00,56.8,36.1,30.23,SSE,158,0.0,7.6,46,0.00,,,0.00,WUHU215HW,2013-03-10 19:28:00,
2013-03-10 12:33:00,56.8,36.1,30.23,SSE,158,0.0,6.2,46,0.00,,,0.00,WUHU215HW,2013-03-10 19:33:00,
2013-03-10 12:38:00,56.4,35.8,30.23,SSW,203,0.0,3.5,46,0.00,,,0.00,WUHU215HW,2013-03-10 19:38:00,
2013-03-10 12:43:00,56.8,36.7,30.22,SSE,158,0.0,3.5,47,0.00,,,0.00,WUHU215HW,2013-03-10 19:43:00,
2013-03-10 12:48:00,56.8,36.1,30.22,SE,135,0.0,0.0,46,0.00,,,0.00,WUHU215HW,2013-03-10 19:48:00,
2013-03-10 12:53:00,57.0,36.3,30.22,SE,135,0.0,2.2,46,0.00,,,0.00,WUHU215HW,2013-03-10 19:53:00,
2013-03-10 12:58:00,56.8,36.1,30.22,SE,135,0.0,2.2,46,0.00,,,0.00,WUHU215HW,2013-03-10 19:58:00,
2013-03-10 13:03:00,56.8,36.1,30.22,SW,225,0.0,0.0,46,0.00,,,0.00,WUHU215HW,2013-03-10 20:03:00,
2013-03-10 13:08:00,56.6,36.0,30.22,South,180,0.0,0.0,46,0.00,,,0.00,WUHU215HW,2013-03-10 20:08:00,
2013-03-10 13:13:00,56.4,35.8,30.21,SSE,158,0.0,0.0,46,0.00,,,0.00,WUHU215HW,2013-03-10 20:13:00,
2013-03-10 13:18:00,56.8,36.1,30.21,SE,135,0.0,4.2,46,0.00,,,0.00,WUHU215HW,2013-03-10 20:18:00,
2013-03-10 13:23:00,57.0,36.3,30.21,SE,135,0.0,4.2,46,0.00,,,0.00,WUHU215HW,2013-03-10 20:23:00,
2013-03-10 13:28:00,57.0,36.3,30.21,SSE,158,0.0,3.5,46,0.00,,,0.00,WUHU215HW,2013-03-10 20:28:00,
2013-03-10 13:33:00,57.0,36.9,30.21,SSE,158,0.0,3.5,47,0.00,,,0.00,WUHU215HW,2013-03-10 20:33:00,
2013-03-10 13:38:00,57.0,36.9,30.20,South,180,0.0,2.9,47,0.00,,,0.00,WUHU215HW,2013-03-10 20:38:00,
2013-03-10 13:43:00,57.0,36.9,30.20,SSW,203,3.1,3.1,47,0.00,,,0.00,WUHU215HW,2013-03-10 20:43:00,
2013-03-10 13:48:00,56.8,36.7,30.20,South,180,0.0,3.1,47,0.00,,,0.00,WUHU215HW,2013-03-10 20:48:00,
2013-03-10 13:53:00,56.6,37.1,30.20,South,180,0.0,5.5,48,0.00,,,0.00,WUHU215HW,2013-03-10 20:53:00,
2013-03-10 13:58:00,56.4,36.9,30.20,SW,225,0.0,5.5,48,0.00,,,0.00,WUHU215HW,2013-03-10 20:58:00,
2013-03-10 14:03:00,56.1,36.6,30.19,SSW,203,0.0,4.4,48,0.00,,,0.00,WUHU215HW,2013-03-10 21:03:00,
2013-03-10 14:09:00,55.9,37.0,30.20,South,180,8.5,8.5,49,0.00,,,0.00,WUHU215HW,2013-03-10 21:09:00,
2013-03-10 14:14:00,55.7,36.8,30.20,SSW,203,2.4,8.5,49,0.00,,,0.00,WUHU215HW,2013-03-10 21:14:00,
2013-03-10 14:19:00,55.7,37.4,30.20,South,180,0.0,8.5,50,0.00,,,0.00,WUHU215HW,2013-03-10 21:19:00,
2013-03-10 14:24:00,55.7,37.4,30.20,SSW,203,0.0,2.4,50,0.00,,,0.00,WUHU215HW,2013-03-10 21:24:00,
2013-03-10 14:29:00,55.7,37.4,30.19,SSW,203,0.0,0.0,50,0.00,,,0.00,WUHU215HW,2013-03-10 21:29:00,
2013-03-10 14:34:00,55.7,37.4,30.19,SSW,203,0.0,0.0,50,0.00,,,0.00,WUHU215HW,2013-03-10 21:34:00,
2013-03-10 14:39:00,55.5,37.6,30.19,South,180,0.0,0.0,51,0.00,,,0.00,WUHU215HW,2013-03-10 21:39:00,
2013-03-10 14:44:00,55.5,37.6,30.19,South,180,0.0,0.0,51,0.00,,,0.00,WUHU215HW,2013-03-10 21:44:00,
2013-03-10 14:49:00,55.9,38.0,30.19,South,180,0.0,5.5,51,0.00,,,0.00,WUHU215HW,2013-03-10 21:49:00,
2013-03-10 14:54:00,55.7,37.8,30.19,SSW,203,0.0,5.5,51,0.00,,,0.00,WUHU215HW,2013-03-10 21:54:00,
2013-03-10 14:59:00,55.7,38.3,30.19,South,180,0.0,0.0,52,0.00,,,0.00,WUHU215HW,2013-03-10 21:59:00,
2013-03-10 15:04:00,55.7,38.3,30.19,South,180,0.0,0.0,52,0.00,,,0.00,WUHU215HW,2013-03-10 22:04:00,
2013-03-10 15:09:00,55.9,38.9,30.19,South,180,0.0,0.0,53,0.00,,,0.00,WUHU215HW,2013-03-10 22:09:00,
2013-03-10 15:14:00,56.1,39.1,30.18,South,180,0.0,0.0,53,0.00,,,0.00,WUHU215HW,2013-03-10 22:14:00,
2013-03-10 15:19:00,56.3,39.3,30.18,South,180,0.0,0.0,53,0.00,,,0.00,WUHU215HW,2013-03-10 22:19:00,
2013-03-10 15:24:00,56.4,39.5,30.18,South,180,0.0,0.0,53,0.00,,,0.00,WUHU215HW,2013-03-10 22:24:00,
2013-03-10 15:29:00,56.4,39.5,30.19,South,180,0.0,0.0,53,0.00,,,0.00,WUHU215HW,2013-03-10 22:29:00,
2013-03-10 15:34:00,56.4,39.0,30.19,South,180,0.0,0.0,52,0.00,,,0.00,WUHU215HW,2013-03-10 22:34:00,
2013-03-10 15:39:00,56.4,39.0,30.19,South,180,0.0,0.0,52,0.00,,,0.00,WUHU215HW,2013-03-10 22:39:00,
2013-03-10 15:44:00,56.4,39.0,30.19,South,180,0.0,0.0,52,0.00,,,0.00,WUHU215HW,2013-03-10 22:44:00,
2013-03-10 15:49:00,56.1,38.6,30.20,South,180,0.0,0.0,52,0.00,,,0.00,WUHU215HW,2013-03-10 22:49:00,
2013-03-10 15:54:00,55.9,38.5,30.19,South,180,0.0,0.0,52,0.00,,,0.00,WUHU215HW,2013-03-10 22:54:00,
2013-03-10 15:59:00,55.9,38.0,30.19,South,180,0.0,0.0,51,0.00,,,0.00,WUHU215HW,2013-03-10 22:59:00,
2013-03-10 16:04:00,55.5,38.1,30.20,South,180,0.0,0.0,52,0.00,,,0.00,WUHU215HW,2013-03-10 23:04:00,
2013-03-10 16:09:00,55.4,37.9,30.20,South,180,0.0,0.0,52,0.00,,,0.00,WUHU215HW,2013-03-10 23:09:00,
2013-03-10 16:14:00,55.2,37.8,30.19,South,180,0.0,0.0,52,0.00,,,0.00,WUHU215HW,2013-03-10 23:14:00,
2013-03-10 16:19:00,55.2,37.8,30.19,South,180,0.0,0.0,52,0.00,,,0.00,WUHU215HW,2013-03-10 23:19:00,
2013-03-10 16:24:00,55.2,37.8,30.19,South,180,0.0,0.0,52,0.00,,,0.00,WUHU215HW,2013-03-10 23:24:00,
2013-03-10 16:29:00,55.2,37.8,30.18,South,180,0.0,0.0,52,0.00,,,0.00,WUHU215HW,2013-03-10 23:29:00,
2013-03-10 16:34:00,55.2,38.2,30.18,South,180,0.0,0.0,53,0.00,,,0.00,WUHU215HW,2013-03-10 23:34:00,
2013-03-10 16:39:00,55.2,38.2,30.19,South,180,0.0,0.0,53,0.00,,,0.00,WUHU215HW,2013-03-10 23:39:00,
2013-03-10 16:44:00,55.2,38.2,30.19,South,180,0.0,0.0,53,0.00,,,0.00,WUHU215HW,2013-03-10 23:44:00,
2013-03-10 16:49:00,55.4,38.4,30.19,South,180,0.0,0.0,53,0.00,,,0.00,WUHU215HW,2013-03-10 23:49:00,
2013-03-10 16:54:00,55.4,38.4,30.19,South,180,0.0,0.0,53,0.00,,,0.00,WUHU215HW,2013-03-10 23:54:00,
2013-03-10 16:59:00,55.5,38.6,30.18,South,180,0.0,0.0,53,0.00,,,0.00,WUHU215HW,2013-03-10 23:59:00,
2013-03-10 17:04:00,55.5,38.6,30.19,South,180,0.0,0.0,53,0.00,,,0.00,WUHU215HW,2013-03-11 00:04:00,
2013-03-10 17:09:00,55.5,38.6,30.18,South,180,0.0,0.0,53,0.00,,,0.00,WUHU215HW,2013-03-11 00:09:00,
2013-03-10 17:14:00,55.2,38.2,30.18,SW,225,0.0,0.0,53,0.00,,,0.00,WUHU215HW,2013-03-11 00:14:00,
2013-03-10 17:19:00,55.2,38.2,30.18,SW,225,0.0,0.0,53,0.00,,,0.00,WUHU215HW,2013-03-11 00:19:00,
2013-03-10 17:24:00,55.0,38.1,30.18,SW,225,0.0,0.0,53,0.00,,,0.00,WUHU215HW,2013-03-11 00:24:00,
2013-03-10 17:29:00,54.6,37.6,30.18,SW,225,0.0,0.0,53,0.00,,,0.00,WUHU215HW,2013-03-11 00:29:00,
2013-03-10 17:34:00,54.3,37.9,30.18,SW,225,0.0,0.0,54,0.00,,,0.00,WUHU215HW,2013-03-11 00:34:00,
2013-03-10 17:39:00,54.3,37.9,30.18,SW,225,0.0,0.0,54,0.00,,,0.00,WUHU215HW,2013-03-11 00:39:00,
2013-03-10 17:44:00,54.3,37.7,30.18,SW,225,0.0,0.0,54,0.00,,,0.00,WUHU215HW,2013-03-11 00:44:00,
2013-03-10 17:49:00,54.1,37.7,30.18,SW,225,0.0,0.0,54,0.00,,,0.00,WUHU215HW,2013-03-11 00:49:00,
2013-03-10 17:54:00,54.1,38.2,30.18,SW,225,0.0,0.0,55,0.00,,,0.00,WUHU215HW,2013-03-11 00:54:00,
2013-03-10 17:59:00,54.1,38.4,30.18,SW,225,0.0,0.0,55,0.00,,,0.00,WUHU215HW,2013-03-11 00:59:00,
2013-03-10 18:04:00,54.1,38.2,30.18,SW,225,0.0,0.0,55,0.00,,,0.00,WUHU215HW,2013-03-11 01:04:00,
2013-03-10 18:09:00,53.9,38.0,30.18,SW,225,0.0,0.0,55,0.00,,,0.00,WUHU215HW,2013-03-11 01:09:00,
2013-03-10 18:14:00,53.7,37.9,30.17,SW,225,0.0,0.0,55,0.00,,,0.00,WUHU215HW,2013-03-11 01:14:00,
2013-03-10 18:19:00,53.4,37.5,30.17,South,180,0.0,0.0,55,0.00,,,0.00,WUHU215HW,2013-03-11 01:19:00,
2013-03-10 18:24:00,53.2,37.4,30.17,South,180,0.0,0.0,55,0.00,,,0.00,WUHU215HW,2013-03-11 01:24:00,
2013-03-10 18:29:00,52.8,37.0,30.17,South,180,0.0,0.0,55,0.00,,,0.00,WUHU215HW,2013-03-11 01:29:00,
2013-03-10 18:35:00,52.5,37.1,30.17,South,180,0.0,0.0,56,0.00,,,0.00,WUHU215HW,2013-03-11 01:35:00,
2013-03-10 18:40:00,51.9,36.6,30.17,South,180,0.0,0.0,56,0.00,,,0.00,WUHU215HW,2013-03-11 01:40:00,
2013-03-10 18:45:00,51.6,36.3,30.17,South,180,0.0,0.0,56,0.00,,,0.00,WUHU215HW,2013-03-11 01:45:00,
2013-03-10 18:50:00,51.6,36.3,30.17,South,180,0.0,0.0,56,0.00,,,0.00,WUHU215HW,2013-03-11 01:50:00,
2013-03-10 18:55:00,51.6,36.7,30.17,South,180,0.0,0.0,57,0.00,,,0.00,WUHU215HW,2013-03-11 01:55:00,
2013-03-10 19:00:00,51.4,36.6,30.18,South,180,0.0,0.0,57,0.00,,,0.00,WUHU215HW,2013-03-11 02:00:00,
2013-03-10 19:05:00,51.4,37.0,30.17,South,180,0.0,0.0,58,0.00,,,0.00,WUHU215HW,2013-03-11 02:05:00,
2013-03-10 19:10:00,51.0,36.7,30.18,South,180,0.0,0.0,58,0.00,,,0.00,WUHU215HW,2013-03-11 02:10:00,
2013-03-10 19:15:00,50.7,36.4,30.17,South,180,0.0,0.0,58,0.00,,,0.00,WUHU215HW,2013-03-11 02:15:00,
2013-03-10 19:20:00,50.5,36.7,30.18,South,180,0.0,0.0,59,0.00,,,0.00,WUHU215HW,2013-03-11 02:20:00,
2013-03-10 19:25:00,50.3,36.3,30.18,South,180,0.0,0.0,59,0.00,,,0.00,WUHU215HW,2013-03-11 02:25:00,
2013-03-10 19:30:00,49.8,36.5,30.18,South,180,0.0,0.0,60,0.00,,,0.00,WUHU215HW,2013-03-11 02:30:00,
2013-03-10 19:35:00,49.6,36.3,30.18,South,180,0.0,0.0,60,0.00,,,0.00,WUHU215HW,2013-03-11 02:35:00,
2013-03-10 19:40:00,49.2,36.0,30.18,South,180,0.0,0.0,60,0.00,,,0.00,WUHU215HW,2013-03-11 02:40:00,
2013-03-10 19:45:00,48.9,36.0,30.18,South,180,0.0,0.0,61,0.00,,,0.00,WUHU215HW,2013-03-11 02:45:00,
2013-03-10 19:50:00,48.9,36.0,30.18,South,180,0.0,0.0,61,0.00,,,0.00,WUHU215HW,2013-03-11 02:50:00,
2013-03-10 19:55:00,48.7,36.3,30.18,South,180,0.0,0.0,62,0.00,,,0.00,WUHU215HW,2013-03-11 02:55:00,
2013-03-10 20:00:00,48.5,36.1,30.18,South,180,0.0,0.0,62,0.00,,,0.00,WUHU215HW,2013-03-11 03:00:00,
2013-03-10 20:05:00,48.3,35.9,30.18,South,180,0.0,0.0,62,0.00,,,0.00,WUHU215HW,2013-03-11 03:05:00,
2013-03-10 20:10:00,48.3,36.3,30.18,South,180,0.0,0.0,63,0.00,,,0.00,WUHU215HW,2013-03-11 03:10:00,
2013-03-10 20:15:00,48.2,36.1,30.18,South,180,0.0,0.0,63,0.00,,,0.00,WUHU215HW,2013-03-11 03:15:00,
2013-03-10 20:20:00,48.3,36.3,30.17,South,180,0.0,0.0,63,0.00,,,0.00,WUHU215HW,2013-03-11 03:20:00,
2013-03-10 20:25:00,48.3,36.3,30.17,South,180,0.0,0.0,63,0.00,,,0.00,WUHU215HW,2013-03-11 03:25:00,
2013-03-10 20:30:00,48.3,36.3,30.17,South,180,0.0,0.0,63,0.00,,,0.00,WUHU215HW,2013-03-11 03:30:00,
2013-03-10 20:35:00,48.5,36.5,30.17,South,180,0.0,0.0,63,0.00,,,0.00,WUHU215HW,2013-03-11 03:35:00,
2013-03-10 20:40:00,48.7,36.6,30.17,South,180,0.0,0.0,63,0.00,,,0.00,WUHU215HW,2013-03-11 03:40:00,
2013-03-10 20:45:00,48.7,36.3,30.17,South,180,0.0,0.0,62,0.00,,,0.00,WUHU215HW,2013-03-11 03:45:00,
2013-03-10 20:50:00,48.5,36.1,30.18,South,180,0.0,0.0,62,0.00,,,0.00,WUHU215HW,2013-03-11 03:50:00,
2013-03-10 20:55:00,48.3,35.9,30.18,South,180,0.0,0.0,62,0.00,,,0.00,WUHU215HW,2013-03-11 03:55:00,
2013-03-10 21:00:00,48.0,35.6,30.18,South,180,0.0,0.0,62,0.00,,,0.00,WUHU215HW,2013-03-11 04:00:00,
2013-03-10 21:01:00,48.0,35.6,30.18,South,180,0.0,0.0,62,0.00,,,0.00,WUHU215HW,2013-03-11 04:01:00,
2013-03-10 21:04:00,48.0,35.6,30.18,South,180,0.0,0.0,62,0.00,,,0.00,WUHU215HW,2013-03-11 04:04:00,
2013-03-10 21:06:00,47.8,35.4,30.18,South,180,0.0,0.0,62,0.00,,,0.00,WUHU215HW,2013-03-11 04:06:00,
2013-03-10 21:12:00,47.4,35.2,30.18,South,180,0.0,0.0,62,0.00,,,0.00,WUHU215HW,2013-03-11 04:12:00,
2013-03-10 21:17:00,47.4,35.0,30.18,South,180,0.0,0.0,62,0.00,,,0.00,WUHU215HW,2013-03-11 04:17:00,
2013-03-10 21:22:00,47.4,35.0,30.18,South,180,0.0,0.0,62,0.00,,,0.00,WUHU215HW,2013-03-11 04:22:00,
2013-03-10 21:27:00,47.6,35.2,30.18,SSW,203,0.0,0.0,62,0.00,,,0.00,WUHU215HW,2013-03-11 04:27:00,
2013-03-10 21:32:00,47.6,35.2,30.18,SSW,203,0.0,0.0,62,0.00,,,0.00,WUHU215HW,2013-03-11 04:32:00,
2013-03-10 21:37:00,47.4,35.0,30.18,SSW,203,0.0,0.0,62,0.00,,,0.00,WUHU215HW,2013-03-11 04:37:00,
2013-03-10 21:42:00,47.3,34.9,30.18,SSW,203,0.0,0.0,62,0.00,,,0.00,WUHU215HW,2013-03-11 04:42:00,
2013-03-10 21:47:00,47.1,34.7,30.18,SSW,203,0.0,0.0,62,0.00,,,0.00,WUHU215HW,2013-03-11 04:47:00,
2013-03-10 21:53:00,46.9,34.5,30.18,SSW,203,0.0,0.0,62,0.00,,,0.00,WUHU215HW,2013-03-11 04:53:00,
2013-03-10 21:58:00,46.7,34.3,30.19,SSW,203,0.0,0.0,62,0.00,,,0.00,WUHU215HW,2013-03-11 04:58:00,
2013-03-10 22:03:00,46.7,34.3,30.19,SSW,203,0.0,0.0,62,0.00,,,0.00,WUHU215HW,2013-03-11 05:03:00,
2013-03-10 22:09:00,46.9,34.9,30.19,SSW,203,0.0,0.0,63,0.00,,,0.00,WUHU215HW,2013-03-11 05:09:00,
2013-03-10 22:14:00,46.7,34.7,30.19,South,180,0.0,0.0,63,0.00,,,0.00,WUHU215HW,2013-03-11 05:14:00,
2013-03-10 22:19:00,46.7,34.7,30.20,South,180,0.0,0.0,63,0.00,,,0.00,WUHU215HW,2013-03-11 05:19:00,
2013-03-10 22:24:00,46.7,34.7,30.19,SSW,203,0.0,0.0,63,0.00,,,0.00,WUHU215HW,2013-03-11 05:24:00,
2013-03-10 22:29:00,46.5,34.6,30.19,SSW,203,0.0,0.0,63,0.00,,,0.00,WUHU215HW,2013-03-11 05:29:00,
2013-03-10 22:34:00,46.2,34.2,30.20,SSW,203,0.0,0.0,63,0.00,,,0.00,WUHU215HW,2013-03-11 05:34:00,
2013-03-10 22:39:00,46.2,34.2,30.20,SSW,203,0.0,0.0,63,0.00,,,0.00,WUHU215HW,2013-03-11 05:39:00,
2013-03-10 22:44:00,46.0,34.1,30.21,SSW,203,0.0,0.0,63,0.00,,,0.00,WUHU215HW,2013-03-11 05:44:00,
2013-03-10 22:49:00,45.6,33.7,30.20,SSW,203,0.0,0.0,63,0.00,,,0.00,WUHU215HW,2013-03-11 05:49:00,
2013-03-10 22:54:00,45.5,33.9,30.20,SSW,203,0.0,0.0,64,0.00,,,0.00,WUHU215HW,2013-03-11 05:54:00,
2013-03-10 22:59:00,45.3,33.8,30.20,SSW,203,0.0,0.0,64,0.00,,,0.00,WUHU215HW,2013-03-11 05:59:00,
2013-03-10 23:04:00,44.9,33.4,30.20,SSW,203,0.0,0.0,64,0.00,,,0.00,WUHU215HW,2013-03-11 06:04:00,
2013-03-10 23:09:00,44.7,33.3,30.20,SSW,203,0.0,0.0,64,0.00,,,0.00,WUHU215HW,2013-03-11 06:09:00,
2013-03-10 23:14:00,44.6,33.5,30.20,SSW,203,0.0,0.0,65,0.00,,,0.00,WUHU215HW,2013-03-11 06:14:00,
2013-03-10 23:19:00,44.4,33.3,30.21,SSW,203,0.0,0.0,65,0.00,,,0.00,WUHU215HW,2013-03-11 06:19:00,
2013-03-10 23:24:00,44.4,33.7,30.20,SSW,203,0.0,0.0,66,0.00,,,0.00,WUHU215HW,2013-03-11 06:24:00,
2013-03-10 23:29:00,44.2,33.5,30.19,SSW,203,0.0,0.0,66,0.00,,,0.00,WUHU215HW,2013-03-11 06:29:00,
2013-03-10 23:34:00,44.2,33.9,30.19,SW,225,0.0,0.0,67,0.00,,,0.00,WUHU215HW,2013-03-11 06:34:00,
2013-03-10 23:39:00,44.2,33.9,30.19,SW,225,0.0,0.0,67,0.00,,,0.00,WUHU215HW,2013-03-11 06:39:00,
2013-03-10 23:44:00,44.2,33.9,30.19,SW,225,0.0,0.0,67,0.00,,,0.00,WUHU215HW,2013-03-11 06:44:00,
2013-03-10 23:50:00,44.2,33.9,30.19,SW,225,0.0,0.0,67,0.00,,,0.00,WUHU215HW,2013-03-11 06:50:00,
2013-03-10 23:55:00,44.0,34.1,30.19,SW,225,0.0,0.0,68,0.00,,,0.00,WUHU215HW,2013-03-11 06:55:00,